• Join FlightAware (Why Join?)
  • Login
  • US Flag 
12:58AM EST


 

Airport Tracker/Info


-or-


 

Live Flight TrackerFlight Track Log ✈ ASQ4930 ✈ 07-May-2012 ✈ KSAT - KDTW

Flight Track Log - Related Links

Times and Time Zones

All times are in EDT time to prevent confusion due to time zone crossing. See the ASQ4930 flight status page for this flight to view local times or setup timezone preferences in your user account.

Time Position Orientation Groundspeed Altitude Reporting Facility
EDT Latitude Longitude Course Direction KTS MPH feet Rate Location/Type
08:23PM 29.5206 -98.4650 132° Southeast 156 180 1,700  Level Houston Center
08:24PM 29.4911 -98.4275 75° East 184 212 3,300 1,980 Climbing Houston Center
08:25PM 29.5125 -98.3333 72° East 239 275 6,100 2,040 Climbing Houston Center
08:26PM 29.5325 -98.2631 73° East 246 283 8,300 2,160 Climbing Houston Center
08:27PM 29.5581 -98.1644 72° East 277 319 10,500 1,980 Climbing Houston Center
08:28PM 29.5833 -98.0753 72° East 306 352 12,300 1,860 Climbing Houston Center
08:29PM 29.6156 -97.9628 72° East 329 379 14,300 1,680 Climbing Houston Center
08:30PM 29.6433 -97.8619 84° East 352 405 15,700 1,440 Climbing Houston Center
08:31PM 29.6558 -97.7242 90° East 376 433 17,200 1,560 Climbing Houston Center
08:32PM 29.6553 -97.5928 89° East 393 452 18,900 1,560 Climbing Houston Center
08:33PM 29.6569 -97.4542 90° East 418 481 20,400 1,500 Climbing Houston Center
08:34PM 29.6569 -97.3108 89° East 429 494 21,900 1,440 Climbing Houston Center
08:35PM 29.6583 -97.1700 89° East 443 510 23,300 1,380 Climbing Houston Center
08:36PM 29.6603 -97.0219 92° East 448 516 24,700 1,380 Climbing Houston Center
08:37PM 29.6556 -96.8736 71° East 458 527 26,100 1,200 Climbing Houston Center
08:38PM 29.6986 -96.7300 62° Northeast 458 527 27,100 960 Climbing Houston Center
08:39PM 29.7619 -96.5944 40° Northeast 468 539 28,100 960 Climbing Houston Center
08:40PM 29.8636 -96.4964 39° Northeast 462 532 29,100 900 Climbing Houston Center
08:41PM 29.9672 -96.3981 39° Northeast 462 532 30,000 840 Climbing Houston Center
08:42PM 30.0750 -96.2975 41° Northeast 473 544 30,800 900 Climbing Houston Center
08:43PM 30.1786 -96.1942 39° Northeast 483 556 31,800 960 Climbing Houston Center
08:44PM 30.2800 -96.0978 39° Northeast 488 562 32,800 900 Climbing Houston Center
08:45PM 30.3725 -96.0103 39° Northeast 481 554 33,700 900 Climbing Houston Center
08:46PM 30.4714 -95.9158 39° Northeast 474 545 34,700 600 Climbing Houston Center
08:47PM 30.5833 -95.8094 42° Northeast 469 540 35,000 120 Climbing Houston Center
08:48PM 30.6844 -95.7050 41° Northeast 469 540 35,000  Level Houston Center
08:49PM 30.7856 -95.6028 39° Northeast 469 540 35,000  Level Houston Center
08:50PM 30.8908 -95.5031 40° Northeast 474 545 35,000  Level Houston Center
08:52PM 31.1161 -95.2831 38° Northeast 489 563 35,000  Level Fort Worth Center
08:53PM 31.2208 -95.1858 40° Northeast 484 557 35,000  Level Fort Worth Center
08:54PM 31.3317 -95.0761 41° Northeast 484 557 35,000  Level Fort Worth Center
08:55PM 31.4319 -94.9739 40° Northeast 477 549 35,000  Level Fort Worth Center
08:56PM 31.5322 -94.8736 40° Northeast 477 549 35,000  Level Fort Worth Center
08:57PM 31.6325 -94.7733 40° Northeast 472 543 35,000  Level Fort Worth Center
08:58PM 31.7286 -94.6778 42° Northeast 467 537 35,000  Level Fort Worth Center
08:59PM 31.8225 -94.5797 57° Northeast 454 522 35,000  Level Fort Worth Center
09:00PM 31.8906 -94.4553 64° Northeast 448 516 35,000  Level Fort Worth Center
09:01PM 31.9458 -94.3189 65° Northeast 448 516 35,000  Level Fort Worth Center
09:02PM 31.9989 -94.1847 65° Northeast 448 516 35,000  Level Fort Worth Center
09:03PM 32.0556 -94.0431 65° Northeast 458 527 35,000  Level Fort Worth Center
09:04PM 32.1103 -93.9036 65° Northeast 463 533 35,000  Level Fort Worth Center
09:05PM 32.1667 -93.7617 67° East 468 539 35,000 480 Level Fort Worth Center
09:06PM 32.2189 -93.6172 65° Northeast 468 539 36,000 960 Climbing Fort Worth Center
09:07PM 32.2614 -93.5097 65° Northeast 460 529 37,000 480 Climbing Fort Worth Center
09:08PM 32.3250 -93.3447 65° Northeast 455 524 37,000  Level Fort Worth Center
09:09PM 32.3792 -93.2069 66° East 454 522 37,000  Level Fort Worth Center
09:10PM 32.4325 -93.0644 64° Northeast 454 522 37,000  Level Fort Worth Center
09:11PM 32.4903 -92.9236 65° Northeast 460 529 37,000  Level Fort Worth Center
09:12PM 32.5475 -92.7753 66° East 470 541 37,000  Level Fort Worth Center
09:13PM 32.6025 -92.6297 66° East 475 547 37,000 300 Level Fort Worth Center
09:14PM 32.6575 -92.4861 65° Northeast 475 547 37,700 660 Climbing Fort Worth Center
09:15PM 32.7144 -92.3397 66° East 475 547 38,400 360 Climbing Fort Worth Center
09:18PM 32.8278 -92.0311 67° East 487 560 39,000 180 Climbing Memphis Center
09:19PM 32.8797 -91.8836 66° East 487 560 39,000  Level Memphis Center
09:20PM 32.9358 -91.7361 65° Northeast 487 560 39,000  Level Memphis Center
09:21PM 32.9936 -91.5908 68° East 487 560 39,000  Level Memphis Center
09:22PM 33.0453 -91.4378 66° East 487 560 39,000  Level Memphis Center
09:23PM 33.0986 -91.2947 66° East 477 549 39,000  Level Memphis Center
09:24PM 33.1539 -91.1439 67° East 477 549 39,000  Level Memphis Center
09:25PM 33.2069 -90.9953 67° East 477 549 39,000  Level Memphis Center
09:26PM 33.2597 -90.8467 65° Northeast 477 549 39,000  Level Memphis Center
09:27PM 33.3164 -90.6978 67° East 482 555 39,000  Level Memphis Center
09:28PM 33.3689 -90.5486 66° East 482 555 39,000  Level Memphis Center
09:29PM 33.4256 -90.3969 66° East 482 555 39,000  Level Memphis Center
09:30PM 33.4797 -90.2475 66° East 482 555 39,000  Level Memphis Center
09:31PM 33.5358 -90.0956 66° East 482 555 39,000  Level Memphis Center
09:32PM 33.5917 -89.9458 67° East 482 555 39,000  Level Memphis Center
09:33PM 33.6456 -89.7958 65° Northeast 482 555 39,000  Level Memphis Center
09:34PM 33.7053 -89.6431 66° East 482 555 39,000  Level Memphis Center
09:35PM 33.7606 -89.4903 66° East 482 555 39,000  Level Memphis Center
09:36PM 33.8178 -89.3369 68° East 482 555 39,000  Level Memphis Center
09:37PM 33.8708 -89.1814 65° Northeast 494 568 39,000  Level Memphis Center
09:38PM 33.9278 -89.0328 60° Northeast 494 568 39,000  Level Memphis Center
09:39PM 33.9889 -88.9067 46° Northeast 494 568 39,000  Level Memphis Center
09:40PM 34.0833 -88.7872 52° Northeast 488 562 39,000  Level Memphis Center
09:41PM 34.1694 -88.6550 52° Northeast 483 556 39,000  Level Memphis Center
09:42PM 34.2531 -88.5253 50° Northeast 488 562 39,000  Level Memphis Center
09:43PM 34.3511 -88.3847 32° Northeast 488 562 39,000  Level Memphis Center
09:45PM 34.5756 -88.2156 North 475 547 39,000  Level Memphis Center
09:46PM 34.7047 -88.2022 North 457 526 39,000  Level Memphis Center
09:47PM 34.8214 -88.1842 North 462 532 39,000  Level Memphis Center
09:48PM 34.9650 -88.1600 North 467 537 39,000  Level Memphis Center
09:51PM 35.3458 -88.1144 North 474 545 39,000  Level Memphis Center
09:52PM 35.4914 -88.0978 North 469 540 39,000  Level Memphis Center
09:53PM 35.6206 -88.0814 North 469 540 39,000  Level Memphis Center
09:54PM 35.7536 -88.0625 North 469 540 39,000  Level Memphis Center
09:55PM 35.8847 -88.0433 North 479 551 39,000  Level Memphis Center
09:56PM 36.0200 -88.0267 North 479 551 39,000  Level Memphis Center
09:57PM 36.1383 -88.0106 North 479 551 39,000  Level Memphis Center
09:58PM 36.2694 -87.9939 North 479 551 39,000  Level Memphis Center
09:59PM 36.4044 -87.9719 North 479 551 39,000  Level Memphis Center
10:00PM 36.5356 -87.9578 North 479 551 39,000  Level Memphis Center
10:01PM 36.6789 -87.9353 North 479 551 39,000  Level Memphis Center
10:02PM 36.8142 -87.9183 North 484 557 39,000  Level Memphis Center
10:04PM 37.0997 -87.8797 North 490 564 39,000  Level Indianapolis Center
10:05PM 37.2192 -87.8631 North 485 558 39,000  Level Indianapolis Center
10:06PM 37.3533 -87.8447 North 485 558 39,000  Level Indianapolis Center
10:07PM 37.4875 -87.8264 North 485 558 39,000  Level Indianapolis Center
10:08PM 37.6239 -87.8078 North 485 558 39,000  Level Indianapolis Center
10:09PM 37.7581 -87.7892 North 485 558 39,000  Level Indianapolis Center
10:10PM 37.8925 -87.7656 22° Northeast 480 552 39,000  Level Indianapolis Center
10:11PM 38.0200 -87.7014 30° Northeast 485 558 39,000  Level Indianapolis Center
10:12PM 38.1464 -87.6083 29° Northeast 491 565 39,000  Level Indianapolis Center
10:13PM 38.2703 -87.5197 30° Northeast 504 580 39,000  Level Indianapolis Center
10:14PM 38.3964 -87.4286 30° Northeast 516 594 39,000  Level Indianapolis Center
10:15PM 38.5225 -87.3372 30° Northeast 521 600 39,000  Level Indianapolis Center
10:16PM 38.6464 -87.2453 30° Northeast 521 600 39,000  Level Indianapolis Center
10:17PM 38.7831 -87.1431 29° Northeast 516 594 39,000  Level Indianapolis Center
10:18PM 38.9086 -87.0531 30° Northeast 516 594 39,000  Level Indianapolis Center
10:19PM 39.0344 -86.9578 31° Northeast 516 594 39,000  Level Indianapolis Center
10:20PM 39.1542 -86.8642 30° Northeast 516 594 39,000  Level Indianapolis Center
10:21PM 39.2819 -86.7683 30° Northeast 510 587 39,000 -300 Level Indianapolis Center
10:22PM 39.3944 -86.6847 29° Northeast 515 593 38,500 -1,080 Descending Indianapolis Center
10:24PM 39.6956 -86.4658 33° Northeast 516 594 35,600 -1,260 Descending Chicago Center
10:25PM 39.8242 -86.3575 36° Northeast 526 605 34,400 -1,140 Descending Chicago Center
10:26PM 39.9297 -86.2581 38° Northeast 531 611 33,400 -720 Descending Chicago Center
10:27PM 40.0414 -86.1444 37° Northeast 526 605 33,000 -240 Descending Chicago Center
10:28PM 40.1569 -86.0303 37° Northeast 520 598 33,000  Level Chicago Center
10:29PM 40.2725 -85.9156 38° Northeast 526 605 33,000 -180 Level Chicago Center
10:30PM 40.3917 -85.7922 38° Northeast 526 605 32,700 -1,020 Descending Chicago Center
10:31PM 40.5128 -85.6683 38° Northeast 521 600 31,000 -1,740 Descending Chicago Center
10:32PM 40.6239 -85.5553 37° Northeast 516 594 29,300 -1,800 Descending Chicago Center
10:33PM 40.7367 -85.4419 37° Northeast 506 582 27,400 -1,860 Descending Chicago Center
10:34PM 40.8433 -85.3342 40° Northeast 501 577 25,600 -1,860 Descending Chicago Center
10:36PM 41.0533 -85.1022 40° Northeast 491 565 21,900 -1,560 Descending Cleveland Center
10:37PM 41.1622 -84.9800 39° Northeast 468 539 21,000 -480 Descending Cleveland Center
10:38PM 41.2622 -84.8736 39° Northeast 463 533 21,000  Level Cleveland Center
10:39PM 41.3689 -84.7589 49° Northeast 470 541 21,000 -60 Level Cleveland Center
10:40PM 41.4550 -84.6258 50° Northeast 470 541 20,900 -1,080 Descending Cleveland Center
10:41PM 41.5431 -84.4869 51° Northeast 480 552 18,900 -2,100 Descending Cleveland Center
10:42PM 41.6203 -84.3611 48° Northeast 459 528 16,700 -2,160 Descending Cleveland Center
10:43PM 41.6928 -84.2542 49° Northeast 432 497 14,900 -2,040 Descending Cleveland Center
10:44PM 41.7628 -84.1467 52° Northeast 420 483 13,100 -1,560 Descending Cleveland Center
10:45PM 41.8333 -84.0250 48° Northeast 412 474 12,000 -600 Descending Cleveland Center
10:46PM 41.9117 -83.9094 46° Northeast 416 479 12,000  Level Cleveland Center
10:47PM 41.9900 -83.7989 46° Northeast 419 482 12,000 -180 Level Cleveland Center
10:48PM 42.0744 -83.6800 43° Northeast 409 471 11,700 -420 Descending Cleveland Center
10:49PM 42.1297 -83.6094 36° Northeast 341 392 11,300 -1,020 Descending FAA TRACON SMA TRACON (SMA)
10:49PM 42.1783 -83.5622 25° Northeast 310 357 10,300 -1,500 Descending FAA TRACON SMA TRACON (SMA)
10:50PM 42.2292 -83.5306 24° Northeast 304 350 9,300 -1,560 Descending FAA TRACON SMA TRACON (SMA)
10:51PM 42.2808 -83.4994 23° Northeast 294 338 8,300 -1,500 Descending FAA TRACON SMA TRACON (SMA)
10:51PM 42.3297 -83.4711 23° Northeast 287 330 7,300 -1,680 Descending FAA TRACON SMA TRACON (SMA)
10:52PM 42.3750 -83.4450 23° Northeast 280 322 6,100 -1,860 Descending FAA TRACON SMA TRACON (SMA)
10:53PM 42.4231 -83.4172 68° East 276 318 4,900 -1,860 Descending FAA TRACON SMA TRACON (SMA)
10:53PM 42.4397 -83.3603 113° Southeast 257 296 3,700 -1,440 Descending FAA TRACON SMA TRACON (SMA)
10:54PM 42.4222 -83.3036 113° Southeast 256 295 3,000 -540 Descending FAA TRACON SMA TRACON (SMA)
10:55PM 42.4047 -83.2481 164° South 221 254 3,000  Level FAA TRACON SMA TRACON (SMA)
10:55PM 42.3689 -83.2344 196° South 211 243 3,000  Level FAA TRACON SMA TRACON (SMA)
10:56PM 42.3328 -83.2486 211° Southwest 206 237 3,000 -420 Level FAA TRACON SMA TRACON (SMA)
10:57PM 42.3008 -83.2747 211° Southwest 198 228 2,500 -780 Descending FAA TRACON SMA TRACON (SMA)